Relevés horaires Bierset (Belgique)


Relevés horaires à Bierset - Vendredi 26 Juin 2020
Heure UTC1 Température [°C] Vent [km/h] Hum. [%] Pres.4 [hPa] Visi. [Km] Nébu. [octa] Préc.5 [mm] Cond.
2m. Res. Ros. Dir.2 Vit. Moy. Raf.3
23:00 20.8 20.8 16.1 SSE 5.6 7.4 11.1 74 1010.5(0.0/3h) 30 7/8 -- --
22:00 21.6 21.6 15.8 SSO 7.4 11.1 14.8 70 1010.6(-0.1/3h) 30 7/8 -- --
21:00 21.0 21.0 17.0 SSE 3.7 9.3 18.5 78 1010.6(-0.2/3h) 30 7/8 -- --
20:00 21.0 21.0 17.3 SSE 5.6 7.4 13.0 79 1010.5(-0.3/3h) 30 7/8 -- --
19:00 21.6 21.6 17.4 S 7.4 9.3 18.5 77 1010.7(0.4/3h) 30 7/8 -- --
18:00 21.7 21.7 18.2 S 9.3 11.1 18.5 81 1010.7(0.6/3h) 30 7/8 0.4/12h
Il y a des averses de pluie faibles à la station au moment de l'observation
17:00 22.3 22.3 18.0 S 11.1 11.1 14.8 77 1010.8(0.5/3h) 30 5/8 -- Il y a des averses de pluie faibles à la station au moment de l'observation
16:00 25.2 25.2 16.1 SO 11.1 11.1 14.8 57 1010(-0.7/3h) 30 6/8 -- --
15:00 27.9 27.9 15.2 O 5.6 9.3 14.8 46 1009.7(-1.1/3h) 30 5/8 -- --
14:00 29.0 29.0 15.7 OSO 5.6 7.4 13.0 45 1009.8(-1.0/3h) 30 4/8 -- --
13:00 28.8 28.8 14.4 OSO 5.6 9.3 14.8 41 1010.5(-0.3/3h) 30 4/8 -- --
12:00 28.3 28.3 14.6 OSO 9.3 9.3 16.7 43 1010.8(-0.4/3h) 30 4/8 0/6h
--
11:00 28.2 28.2 13.0 SSO 7.4 7.4 14.8 39 1010.9(-0.5/3h) 30 4/8 -- --
10:00 27.9 27.9 12.3 S 5.6 5.6 14.8 38 1010.9(-0.8/3h) 30 3/8 -- --
09:00 26.3 26.3 13.5 SSE 5.6 9.3 16.7 45 1011.4(-0.8/3h) 30 3/8 -- --
08:00 24.5 24.5 13.4 SE 7.4 9.3 16.7 50 1011.6(-0.4/3h) 30 3/8 -- --
07:00 23.2 23.2 12.8 SE 7.4 7.4 14.8 52 1012.1(0.2/3h) 30 3/8 -- --
06:00 21.7 21.7 12.9 SSE 7.4 9.3 20.4 57 1012.6(-0.2/3h) 30 1/8 0/12h
--
05:00 20.5 20.5 12.7 SSE 7.4 9.3 13.0 61 1012.3(-0.9/3h) 30 1/8 -- --
04:00 20.3 20.3 12.5 SE 7.4 9.3 13.0 61 1012.1(-1.7/3h) 30 1/8 -- --
03:00 21.0 21.0 12.9 SE 7.4 9.3 20.4 60 1012.8(-1.1/3h) 30 0/8 -- --
02:00 21.1 21.1 12.8 SE 9.3 9.3 14.8 59 1013.2(-0.7/3h) 30 0/8 -- --
01:00 21.5 21.5 13.4 S 7.4 7.4 20.4 60 1013.8(-0.9/3h) 30 0/8 -- --
00:00 22.3 22.3 14.1 SE 5.6 9.3 20.4 60 1013.8(-1.2/3h) 30 0/8 0/6h
0/24h
--

1 Coordinated Universal Time. Actuellement il est 10:00 locale et 09:00 UTC.

2 Le vent souffle depuis la direction indiquée vers la direction oposée.

3 Les rafales max. sont disponible 40 min après l'heure du relevé.

4 Pour les stations d'altitude (plus de 600m) le géopotentiel du niveau le plus proche de la pression obligatoire est indiqué.

5 Les stations disposant d'un diffuseur peuvent indiquer "trace". Cela signifie que des précipitations ont touchés le sol mais que la quantité est inférieure à 0.1 mm.

Récapitulatif de la journée
Température [°C] Vent [km/h] Ensoleillement4 [h] Precipitations totale5 [mm] Pression [Hpa]
Min1 Max.2 Moy.3 Max. Min Max.
20.1 29.8 9 20.4 0 h 0 min 0.5 1009.7 1013.8

1 Température minimale relevée entre 18:00 UTC la veille et 18:00 UTC le jour donné.

2 Température maximale relevée entre 06:00 UTC le jour donné et 06:00 UTC le lendemain.

3 Vent moyen de la journée basé sur les relevés horaires.

4 Ensoleillement en heures relevé entre 06:00 UTC la veille et 06:00 UTC le jour donné.

5 Précipitations totales tombées entre 06:00 UTC la jour donné et 06:00 UTC le lendemain.

Graphiques horaires